sensor_id;sensor_type;location;lat;lon;timestamp;pressure;altitude;pressure_sealevel;temperature;humidity
21706;BME280;11014;53.076;18.208;2022-07-22T00:00:06;101303.38;;;29.53;42.92
21706;BME280;11014;53.076;18.208;2022-07-22T00:02:56;101289.19;;;29.54;42.76
21706;BME280;11014;53.076;18.208;2022-07-22T00:05:24;101295.06;;;29.53;42.79
21706;BME280;11014;53.076;18.208;2022-07-22T00:07:53;101303.38;;;29.53;42.91
21706;BME280;11014;53.076;18.208;2022-07-22T00:10:21;101300.63;;;29.53;42.74
21706;BME280;11014;53.076;18.208;2022-07-22T00:12:50;101303.38;;;29.53;42.85
21706;BME280;11014;53.076;18.208;2022-07-22T00:15:18;101293.13;;;29.53;43.15
21706;BME280;11014;53.076;18.208;2022-07-22T00:17:47;101304.97;;;29.54;42.71
21706;BME280;11014;53.076;18.208;2022-07-22T00:20:15;101286.78;;;29.53;43.09
21706;BME280;11014;53.076;18.208;2022-07-22T00:22:43;101288.38;;;29.54;43.03
21706;BME280;11014;53.076;18.208;2022-07-22T00:25:12;101288.38;;;29.54;43.08
21706;BME280;11014;53.076;18.208;2022-07-22T00:27:41;101293.91;;;29.54;42.96
21706;BME280;11014;53.076;18.208;2022-07-22T00:30:10;101287.59;;;29.53;43.26
21706;BME280;11014;53.076;18.208;2022-07-22T00:32:38;101290.00;;;29.55;43.19
21706;BME280;11014;53.076;18.208;2022-07-22T00:35:07;101285.28;;;29.55;43.11
21706;BME280;11014;53.076;18.208;2022-07-22T00:37:36;101282.84;;;29.54;43.08
21706;BME280;11014;53.076;18.208;2022-07-22T00:40:05;101277.31;;;29.54;43.07
21706;BME280;11014;53.076;18.208;2022-07-22T00:42:34;101281.69;;;29.55;43.13
21706;BME280;11014;53.076;18.208;2022-07-22T00:45:03;101275.03;;;29.56;43.13
21706;BME280;11014;53.076;18.208;2022-07-22T00:47:32;101286.09;;;29.56;43.27
21706;BME280;11014;53.076;18.208;2022-07-22T00:50:00;101272.25;;;29.56;43.26
21706;BME280;11014;53.076;18.208;2022-07-22T00:52:30;101271.75;;;29.54;43.35
21706;BME280;11014;53.076;18.208;2022-07-22T00:54:59;101273.38;;;29.55;43.16
21706;BME280;11014;53.076;18.208;2022-07-22T00:57:28;101278.94;;;29.55;43.47
21706;BME280;11014;53.076;18.208;2022-07-22T00:59:57;101263.47;;;29.54;43.64
21706;BME280;11014;53.076;18.208;2022-07-22T01:02:25;101272.56;;;29.54;43.41
21706;BME280;11014;53.076;18.208;2022-07-22T01:04:55;101266.22;;;29.54;43.32
21706;BME280;11014;53.076;18.208;2022-07-22T01:07:23;101272.56;;;29.54;43.38
21706;BME280;11014;53.076;18.208;2022-07-22T01:09:52;101272.56;;;29.54;43.37
21706;BME280;11014;53.076;18.208;2022-07-22T01:12:20;101283.66;;;29.54;43.27
21706;BME280;11014;53.076;18.208;2022-07-22T01:14:48;101278.94;;;29.55;43.23
21706;BME280;11014;53.076;18.208;2022-07-22T01:17:17;101295.53;;;29.55;43.14
21706;BME280;11014;53.076;18.208;2022-07-22T01:19:46;101295.53;;;29.55;43.36
21706;BME280;11014;53.076;18.208;2022-07-22T01:22:14;101304.66;;;29.55;43.21
21706;BME280;11014;53.076;18.208;2022-07-22T01:24:43;101292.78;;;29.55;43.26
21706;BME280;11014;53.076;18.208;2022-07-22T01:27:11;101294.41;;;29.56;43.20
21706;BME280;11014;53.076;18.208;2022-07-22T01:29:40;101291.63;;;29.56;43.27
21706;BME280;11014;53.076;18.208;2022-07-22T01:32:09;101294.41;;;29.56;43.49
21706;BME280;11014;53.076;18.208;2022-07-22T01:34:37;101308.25;;;29.56;43.34
21706;BME280;11014;53.076;18.208;2022-07-22T01:37:06;101314.59;;;29.56;43.63
21706;BME280;11014;53.076;18.208;2022-07-22T01:39:34;101320.91;;;29.57;43.48
21706;BME280;11014;53.076;18.208;2022-07-22T01:42:03;101322.41;;;29.54;43.71
21706;BME280;11014;53.076;18.208;2022-07-22T01:44:31;101322.53;;;29.58;43.45
21706;BME280;11014;53.076;18.208;2022-07-22T01:47:00;101317.00;;;29.58;43.51
21706;BME280;11014;53.076;18.208;2022-07-22T01:49:29;101324.16;;;29.59;43.36
21706;BME280;11014;53.076;18.208;2022-07-22T01:51:58;101321.41;;;29.59;43.38
21706;BME280;11014;53.076;18.208;2022-07-22T01:54:26;101321.41;;;29.59;43.49
21706;BME280;11014;53.076;18.208;2022-07-22T01:56:55;101317.00;;;29.58;43.44
21706;BME280;11014;53.076;18.208;2022-07-22T01:59:23;101315.38;;;29.57;43.75
21706;BME280;11014;53.076;18.208;2022-07-22T02:01:52;101322.09;;;29.56;43.46
21706;BME280;11014;53.076;18.208;2022-07-22T02:04:20;101319.19;;;29.52;43.63
21706;BME280;11014;53.076;18.208;2022-07-22T02:06:54;101312.97;;;29.55;43.66
21706;BME280;11014;53.076;18.208;2022-07-22T02:09:23;101312.59;;;29.57;43.48
21706;BME280;11014;53.076;18.208;2022-07-22T02:11:53;101321.72;;;29.57;43.64
21706;BME280;11014;53.076;18.208;2022-07-22T02:14:22;101315.38;;;29.57;43.58
21706;BME280;11014;53.076;18.208;2022-07-22T02:16:51;101324.84;;;29.56;43.72
21706;BME280;11014;53.076;18.208;2022-07-22T02:19:20;101325.66;;;29.56;43.86
21706;BME280;11014;53.076;18.208;2022-07-22T02:21:48;101331.97;;;29.57;43.85
21706;BME280;11014;53.076;18.208;2022-07-22T02:24:16;101330.38;;;29.56;43.56
21706;BME280;11014;53.076;18.208;2022-07-22T02:26:59;101331.53;;;29.55;43.76
21706;BME280;11014;53.076;18.208;2022-07-22T02:29:28;101332.66;;;29.54;43.72
21706;BME280;11014;53.076;18.208;2022-07-22T02:31:58;101330.25;;;29.52;43.59
21706;BME280;11014;53.076;18.208;2022-07-22T02:34:27;101330.25;;;29.52;43.71
21706;BME280;11014;53.076;18.208;2022-07-22T02:36:56;101330.59;;;29.51;43.64
21706;BME280;11014;53.076;18.208;2022-07-22T02:39:25;101321.94;;;29.52;43.76
21706;BME280;11014;53.076;18.208;2022-07-22T02:41:54;101325.53;;;29.53;43.90
21706;BME280;11014;53.076;18.208;2022-07-22T02:44:22;101334.16;;;29.51;43.90
21706;BME280;11014;53.076;18.208;2022-07-22T02:46:52;101336.59;;;29.53;43.76
21706;BME280;11014;53.076;18.208;2022-07-22T02:49:28;101334.97;;;29.52;43.71
21706;BME280;11014;53.076;18.208;2022-07-22T02:51:57;101334.50;;;29.50;43.83
21706;BME280;11014;53.076;18.208;2022-07-22T02:54:26;101327.03;;;29.50;44.00
21706;BME280;11014;53.076;18.208;2022-07-22T02:56:55;101319.03;;;29.49;43.95
21706;BME280;11014;53.076;18.208;2022-07-22T02:59:23;101315.81;;;29.47;44.01
21706;BME280;11014;53.076;18.208;2022-07-22T03:01:51;101322.97;;;29.48;43.86
21706;BME280;11014;53.076;18.208;2022-07-22T03:04:20;101315.81;;;29.47;44.20
21706;BME280;11014;53.076;18.208;2022-07-22T03:06:49;101318.59;;;29.47;43.88
21706;BME280;11014;53.076;18.208;2022-07-22T03:09:23;101319.72;;;29.46;43.96
21706;BME280;11014;53.076;18.208;2022-07-22T03:11:52;101324.47;;;29.45;44.27
21706;BME280;11014;53.076;18.208;2022-07-22T03:14:20;101336.31;;;29.46;44.14
21706;BME280;11014;53.076;18.208;2022-07-22T03:16:50;101331.16;;;29.44;44.20
21706;BME280;11014;53.076;18.208;2022-07-22T03:19:22;101333.91;;;29.44;44.33
21706;BME280;11014;53.076;18.208;2022-07-22T03:21:52;101344.97;;;29.44;44.29
21706;BME280;11014;53.076;18.208;2022-07-22T03:24:22;101339.44;;;29.44;44.25
21706;BME280;11014;53.076;18.208;2022-07-22T03:26:50;101347.75;;;29.44;44.38
21706;BME280;11014;53.076;18.208;2022-07-22T03:29:19;101349.69;;;29.44;44.25
21706;BME280;11014;53.076;18.208;2022-07-22T03:31:47;101355.25;;;29.44;44.22
21706;BME280;11014;53.076;18.208;2022-07-22T03:34:22;101362.41;;;29.45;44.38
21706;BME280;11014;53.076;18.208;2022-07-22T03:36:58;101368.25;;;29.43;44.47
21706;BME280;11014;53.076;18.208;2022-07-22T03:39:26;101381.78;;;29.45;44.49
21706;BME280;11014;53.076;18.208;2022-07-22T03:41:58;101380.63;;;29.46;44.28
21706;BME280;11014;53.076;18.208;2022-07-22T03:44:28;101374.28;;;29.45;44.45
21706;BME280;11014;53.076;18.208;2022-07-22T03:46:57;101380.63;;;29.46;44.55
21706;BME280;11014;53.076;18.208;2022-07-22T03:49:26;101387.78;;;29.47;44.41
21706;BME280;11014;53.076;18.208;2022-07-22T03:51:56;101383.88;;;29.48;44.36
21706;BME280;11014;53.076;18.208;2022-07-22T03:54:26;101383.88;;;29.48;44.41
21706;BME280;11014;53.076;18.208;2022-07-22T03:56:55;101403.72;;;29.50;44.38
21706;BME280;11014;53.076;18.208;2022-07-22T03:59:23;101388.25;;;29.49;44.43
21706;BME280;11014;53.076;18.208;2022-07-22T04:01:52;101377.66;;;29.51;44.48
21706;BME280;11014;53.076;18.208;2022-07-22T04:04:21;101381.56;;;29.50;44.69
21706;BME280;11014;53.076;18.208;2022-07-22T04:06:50;101377.66;;;29.51;44.67
21706;BME280;11014;53.076;18.208;2022-07-22T04:09:27;101372.13;;;29.51;44.63
21706;BME280;11014;53.076;18.208;2022-07-22T04:11:56;101364.97;;;29.50;44.69
21706;BME280;11014;53.076;18.208;2022-07-22T04:14:26;101376.50;;;29.52;44.69
21706;BME280;11014;53.076;18.208;2022-07-22T04:16:57;101370.97;;;29.52;44.32
21706;BME280;11014;53.076;18.208;2022-07-22T04:19:26;101365.41;;;29.52;44.65
21706;BME280;11014;53.076;18.208;2022-07-22T04:21:56;101363.47;;;29.52;44.66
21706;BME280;11014;53.076;18.208;2022-07-22T04:24:28;101357.13;;;29.52;44.24
21706;BME280;11014;53.076;18.208;2022-07-22T04:26:57;101358.75;;;29.53;44.94
21706;BME280;11014;53.076;18.208;2022-07-22T04:29:26;101351.59;;;29.52;44.77
21706;BME280;11014;53.076;18.208;2022-07-22T04:31:55;101337.28;;;29.50;44.69
21706;BME280;11014;53.076;18.208;2022-07-22T04:34:55;101329.44;;;29.52;44.29
21706;BME280;11014;53.076;18.208;2022-07-22T04:37:23;101331.06;;;29.53;44.17
21706;BME280;11014;53.076;18.208;2022-07-22T04:39:52;101341.31;;;29.52;44.27
21706;BME280;11014;53.076;18.208;2022-07-22T04:42:20;101350.78;;;29.51;44.32
21706;BME280;11014;53.076;18.208;2022-07-22T04:44:51;101351.59;;;29.52;44.14
21706;BME280;11014;53.076;18.208;2022-07-22T04:47:19;101355.53;;;29.51;44.08
21706;BME280;11014;53.076;18.208;2022-07-22T04:49:49;101354.34;;;29.52;44.07
21706;BME280;11014;53.076;18.208;2022-07-22T04:52:18;101343.28;;;29.52;44.07
21706;BME280;11014;53.076;18.208;2022-07-22T04:54:48;101340.19;;;29.53;43.72
21706;BME280;11014;53.076;18.208;2022-07-22T04:57:18;101358.75;;;29.53;43.96
21706;BME280;11014;53.076;18.208;2022-07-22T04:59:46;101357.13;;;29.52;43.77
21706;BME280;11014;53.076;18.208;2022-07-22T05:02:15;101364.28;;;29.53;43.88
21706;BME280;11014;53.076;18.208;2022-07-22T05:04:43;101362.66;;;29.52;43.85
21706;BME280;11014;53.076;18.208;2022-07-22T05:07:12;101369.00;;;29.52;43.75
21706;BME280;11014;53.076;18.208;2022-07-22T05:09:40;101369.81;;;29.53;43.91
21706;BME280;11014;53.076;18.208;2022-07-22T05:12:11;101369.81;;;29.53;44.04
21706;BME280;11014;53.076;18.208;2022-07-22T05:14:40;101357.13;;;29.52;43.92
21706;BME280;11014;53.076;18.208;2022-07-22T05:17:12;101350.44;;;29.53;43.96
21706;BME280;11014;53.076;18.208;2022-07-22T05:19:57;101363.13;;;29.54;43.96
21706;BME280;11014;53.076;18.208;2022-07-22T05:22:26;101369.00;;;29.52;43.77
21706;BME280;11014;53.076;18.208;2022-07-22T05:24:55;101385.63;;;29.52;43.71
21706;BME280;11014;53.076;18.208;2022-07-22T05:27:23;101379.25;;;29.52;43.77
21706;BME280;11014;53.076;18.208;2022-07-22T05:29:52;101384.00;;;29.51;43.91
21706;BME280;11014;53.076;18.208;2022-07-22T05:32:20;101388.03;;;29.54;43.61
21706;BME280;11014;53.076;18.208;2022-07-22T05:34:52;101391.97;;;29.53;43.80
21706;BME280;11014;53.076;18.208;2022-07-22T05:37:20;101397.50;;;29.53;43.75
21706;BME280;11014;53.076;18.208;2022-07-22T05:39:49;101397.50;;;29.53;43.54
21706;BME280;11014;53.076;18.208;2022-07-22T05:42:17;101399.09;;;29.54;43.81
21706;BME280;11014;53.076;18.208;2022-07-22T05:44:46;101398.31;;;29.53;43.59
21706;BME280;11014;53.076;18.208;2022-07-22T05:47:15;101426.00;;;29.53;43.88
21706;BME280;11014;53.076;18.208;2022-07-22T05:49:43;101441.78;;;29.53;43.62
21706;BME280;11014;53.076;18.208;2022-07-22T05:52:13;101490.00;;;29.52;43.90
21706;BME280;11014;53.076;18.208;2022-07-22T05:54:42;101519.31;;;29.53;43.94
21706;BME280;11014;53.076;18.208;2022-07-22T05:57:10;101520.91;;;29.54;43.74
21706;BME280;11014;53.076;18.208;2022-07-22T05:59:40;101516.53;;;29.53;43.75
21706;BME280;11014;53.076;18.208;2022-07-22T06:02:09;101514.59;;;29.53;43.84
21706;BME280;11014;53.076;18.208;2022-07-22T06:04:45;101518.16;;;29.54;43.88
21706;BME280;11014;53.076;18.208;2022-07-22T06:07:15;101509.84;;;29.54;44.23
21706;BME280;11014;53.076;18.208;2022-07-22T06:09:44;101512.59;;;29.54;44.62
21706;BME280;11014;53.076;18.208;2022-07-22T06:12:14;101509.84;;;29.54;45.06
21706;BME280;11014;53.076;18.208;2022-07-22T06:14:43;101498.78;;;29.54;45.00
21706;BME280;11014;53.076;18.208;2022-07-22T06:17:12;101517.81;;;29.55;46.77
21706;BME280;11014;53.076;18.208;2022-07-22T06:19:41;101502.03;;;29.56;46.76
21706;BME280;11014;53.076;18.208;2022-07-22T06:22:09;101502.50;;;29.58;46.75
21706;BME280;11014;53.076;18.208;2022-07-22T06:24:38;101503.63;;;29.57;46.76
21706;BME280;11014;53.076;18.208;2022-07-22T06:27:07;101487.53;;;29.59;46.93
21706;BME280;11014;53.076;18.208;2022-07-22T06:29:36;101475.94;;;29.57;46.64
21706;BME280;11014;53.076;18.208;2022-07-22T06:32:05;101467.31;;;29.58;46.70
21706;BME280;11014;53.076;18.208;2022-07-22T06:34:34;101470.91;;;29.59;46.79
21706;BME280;11014;53.076;18.208;2022-07-22T06:37:04;101480.00;;;29.59;46.93
21706;BME280;11014;53.076;18.208;2022-07-22T06:39:34;101484.75;;;29.59;47.16
21706;BME280;11014;53.076;18.208;2022-07-22T06:42:12;101464.19;;;29.60;46.71
21706;BME280;11014;53.076;18.208;2022-07-22T06:45:00;101458.66;;;29.60;46.73
21706;BME280;11014;53.076;18.208;2022-07-22T06:47:56;101448.41;;;29.60;47.04
21706;BME280;11014;53.076;18.208;2022-07-22T06:50:26;101423.84;;;29.59;47.04
21706;BME280;11014;53.076;18.208;2022-07-22T06:52:56;101409.50;;;29.57;47.19
21706;BME280;11014;53.076;18.208;2022-07-22T06:55:25;101387.84;;;29.59;47.50
21706;BME280;11014;53.076;18.208;2022-07-22T06:58:05;101349.09;;;29.59;47.16
21706;BME280;11014;53.076;18.208;2022-07-22T07:00:34;101351.38;;;29.57;46.92
21706;BME280;11014;53.076;18.208;2022-07-22T07:03:21;101360.84;;;29.56;47.13
21706;BME280;11014;53.076;18.208;2022-07-22T07:06:07;101346.19;;;29.55;46.77
21706;BME280;11014;53.076;18.208;2022-07-22T07:08:55;101324.84;;;29.56;46.60
21706;BME280;11014;53.076;18.208;2022-07-22T07:11:27;101312.97;;;29.55;46.67
21706;BME280;11014;53.076;18.208;2022-07-22T07:13:56;101300.63;;;29.53;46.64
21706;BME280;11014;53.076;18.208;2022-07-22T07:16:25;101292.31;;;29.53;46.50
21706;BME280;11014;53.076;18.208;2022-07-22T07:18:54;101281.25;;;29.53;46.46
21706;BME280;11014;53.076;18.208;2022-07-22T07:21:23;101283.19;;;29.52;46.24
21706;BME280;11014;53.076;18.208;2022-07-22T07:23:51;101289.53;;;29.53;46.23
21706;BME280;11014;53.076;18.208;2022-07-22T07:26:21;101300.63;;;29.53;46.06
21706;BME280;11014;53.076;18.208;2022-07-22T07:28:49;101320.00;;;29.53;45.78
21706;BME280;11014;53.076;18.208;2022-07-22T07:31:31;101333.84;;;29.53;45.68
21706;BME280;11014;53.076;18.208;2022-07-22T07:34:05;101351.59;;;29.52;45.95
21706;BME280;11014;53.076;18.208;2022-07-22T07:36:34;101364.28;;;29.53;45.67
21706;BME280;11014;53.076;18.208;2022-07-22T07:39:10;101380.91;;;29.53;45.76
21706;BME280;11014;53.076;18.208;2022-07-22T07:41:39;101386.44;;;29.53;45.54
21706;BME280;11014;53.076;18.208;2022-07-22T07:44:09;101391.97;;;29.53;45.54
21706;BME280;11014;53.076;18.208;2022-07-22T07:46:38;101397.50;;;29.53;45.69
21706;BME280;11014;53.076;18.208;2022-07-22T07:49:06;101406.94;;;29.52;45.45
21706;BME280;11014;53.076;18.208;2022-07-22T07:51:35;101401.41;;;29.52;45.29
21706;BME280;11014;53.076;18.208;2022-07-22T07:54:03;101391.97;;;29.53;45.47
21706;BME280;11014;53.076;18.208;2022-07-22T07:56:34;101388.03;;;29.54;45.35
21706;BME280;11014;53.076;18.208;2022-07-22T07:59:03;101375.81;;;29.55;45.26
21706;BME280;11014;53.076;18.208;2022-07-22T08:01:52;101389.66;;;29.55;45.35
21706;BME280;11014;53.076;18.208;2022-07-22T08:04:28;101388.03;;;29.54;45.31
21706;BME280;11014;53.076;18.208;2022-07-22T08:07:25;101390.81;;;29.54;45.25
21706;BME280;11014;53.076;18.208;2022-07-22T08:09:54;101395.56;;;29.53;45.32
21706;BME280;11014;53.076;18.208;2022-07-22T08:13:06;101399.91;;;29.54;45.20
21706;BME280;11014;53.076;18.208;2022-07-22T08:15:41;101399.81;;;29.51;45.23
21706;BME280;11014;53.076;18.208;2022-07-22T08:18:17;101398.63;;;29.52;45.23
21706;BME280;11014;53.076;18.208;2022-07-22T08:20:46;101403.03;;;29.53;44.99
21706;BME280;11014;53.076;18.208;2022-07-22T08:23:16;101399.47;;;29.52;45.14
21706;BME280;11014;53.076;18.208;2022-07-22T08:25:47;101401.88;;;29.54;45.12
21706;BME280;11014;53.076;18.208;2022-07-22T08:28:15;101399.09;;;29.54;45.28
21706;BME280;11014;53.076;18.208;2022-07-22T08:30:44;101409.38;;;29.53;45.17
21706;BME280;11014;53.076;18.208;2022-07-22T08:33:13;101410.19;;;29.54;45.24
21706;BME280;11014;53.076;18.208;2022-07-22T08:35:43;101414.56;;;29.55;45.06
21706;BME280;11014;53.076;18.208;2022-07-22T08:38:11;101417.34;;;29.55;45.08
21706;BME280;11014;53.076;18.208;2022-07-22T08:40:40;101422.88;;;29.55;45.02
21706;BME280;11014;53.076;18.208;2022-07-22T08:43:09;101429.22;;;29.55;45.07
21706;BME280;11014;53.076;18.208;2022-07-22T08:45:39;101428.41;;;29.55;45.23
21706;BME280;11014;53.076;18.208;2022-07-22T08:48:08;101427.34;;;29.47;45.40
21706;BME280;11014;53.076;18.208;2022-07-22T08:51:01;101435.88;;;29.42;45.58
21706;BME280;11014;53.076;18.208;2022-07-22T08:53:41;101431.00;;;29.39;45.51
21706;BME280;11014;53.076;18.208;2022-07-22T08:56:13;101434.09;;;29.37;45.42
21706;BME280;11014;53.076;18.208;2022-07-22T08:58:42;101438.03;;;29.36;45.58
21706;BME280;11014;53.076;18.208;2022-07-22T09:01:12;101439.16;;;29.35;45.58
21706;BME280;11014;53.076;18.208;2022-07-22T09:03:53;101439.50;;;29.34;45.93
21706;BME280;11014;53.076;18.208;2022-07-22T09:06:48;101443.41;;;29.33;45.60
21706;BME280;11014;53.076;18.208;2022-07-22T09:09:29;101445.03;;;29.34;46.00
21706;BME280;11014;53.076;18.208;2022-07-22T09:12:05;101438.69;;;29.33;45.74
21706;BME280;11014;53.076;18.208;2022-07-22T09:14:51;101445.81;;;29.34;45.76
21706;BME280;11014;53.076;18.208;2022-07-22T09:17:38;101436.38;;;29.35;45.83
21706;BME280;11014;53.076;18.208;2022-07-22T09:20:31;101433.97;;;29.34;45.90
21706;BME280;11014;53.076;18.208;2022-07-22T09:23:19;101428.09;;;29.35;45.91
21706;BME280;11014;53.076;18.208;2022-07-22T09:25:52;101429.22;;;29.34;45.93
21706;BME280;11014;53.076;18.208;2022-07-22T09:28:54;101427.75;;;29.37;45.99
21706;BME280;11014;53.076;18.208;2022-07-22T09:31:34;101423.69;;;29.34;46.00
21706;BME280;11014;53.076;18.208;2022-07-22T09:34:34;101420.91;;;29.34;46.14
21706;BME280;11014;53.076;18.208;2022-07-22T09:37:15;101423.69;;;29.34;46.25
21706;BME280;11014;53.076;18.208;2022-07-22T09:39:44;101433.16;;;29.33;46.25
21706;BME280;11014;53.076;18.208;2022-07-22T09:42:14;101418.16;;;29.34;46.39
21706;BME280;11014;53.076;18.208;2022-07-22T09:44:46;101423.69;;;29.34;46.07
21706;BME280;11014;53.076;18.208;2022-07-22T09:47:41;101419.78;;;29.35;46.19
21706;BME280;11014;53.076;18.208;2022-07-22T09:50:31;101419.78;;;29.35;46.06
21706;BME280;11014;53.076;18.208;2022-07-22T09:53:35;101404.00;;;29.36;46.32
21706;BME280;11014;53.076;18.208;2022-07-22T09:56:10;101407.91;;;29.35;45.96
21706;BME280;11014;53.076;18.208;2022-07-22T09:58:39;101407.09;;;29.34;46.22
21706;BME280;11014;53.076;18.208;2022-07-22T10:01:35;101408.72;;;29.35;46.04
21706;BME280;11014;53.076;18.208;2022-07-22T10:04:06;101402.38;;;29.35;46.21
21706;BME280;11014;53.076;18.208;2022-07-22T10:06:40;101401.53;;;29.34;46.28
21706;BME280;11014;53.076;18.208;2022-07-22T10:09:17;101401.53;;;29.34;46.17
21706;BME280;11014;53.076;18.208;2022-07-22T10:11:48;101403.53;;;29.34;46.26
21706;BME280;11014;53.076;18.208;2022-07-22T10:14:20;101398.47;;;29.36;46.60
21706;BME280;11014;53.076;18.208;2022-07-22T10:16:54;101398.78;;;29.34;46.71
21706;BME280;11014;53.076;18.208;2022-07-22T10:19:23;101399.59;;;29.35;46.64
21706;BME280;11014;53.076;18.208;2022-07-22T10:21:51;101396.50;;;29.36;46.37
21706;BME280;11014;53.076;18.208;2022-07-22T10:24:21;101396.50;;;29.36;46.59
21706;BME280;11014;53.076;18.208;2022-07-22T10:26:58;101398.09;;;29.37;46.32
21706;BME280;11014;53.076;18.208;2022-07-22T10:29:43;101378.72;;;29.37;46.63
21706;BME280;11014;53.076;18.208;2022-07-22T10:37:36;101398.59;;;29.40;46.91
21706;BME280;11014;53.076;18.208;2022-07-22T10:40:25;101387.53;;;29.40;47.06
21706;BME280;11014;53.076;18.208;2022-07-22T10:45:27;101385.91;;;29.38;47.00
21706;BME280;11014;53.076;18.208;2022-07-22T10:47:58;101370.94;;;29.40;47.12
21706;BME280;11014;53.076;18.208;2022-07-22T10:53:08;101375.78;;;29.43;47.25
21706;BME280;11014;53.076;18.208;2022-07-22T10:55:38;101368.63;;;29.42;46.94
21706;BME280;11014;53.076;18.208;2022-07-22T11:01:02;101360.78;;;29.44;47.15
21706;BME280;11014;53.076;18.208;2022-07-22T11:03:32;101371.53;;;29.45;47.21
21706;BME280;11014;53.076;18.208;2022-07-22T11:08:56;101368.75;;;29.45;46.79
21706;BME280;11014;53.076;18.208;2022-07-22T11:11:34;101361.25;;;29.46;46.89
21706;BME280;11014;53.076;18.208;2022-07-22T11:14:02;101366.00;;;29.45;46.89
21706;BME280;11014;53.076;18.208;2022-07-22T11:16:31;101358.47;;;29.46;46.75
21706;BME280;11014;53.076;18.208;2022-07-22T11:19:01;101355.69;;;29.46;46.84
21706;BME280;11014;53.076;18.208;2022-07-22T11:21:33;101354.56;;;29.47;46.73
21706;BME280;11014;53.076;18.208;2022-07-22T11:24:11;101366.09;;;29.49;46.74
21706;BME280;11014;53.076;18.208;2022-07-22T11:26:45;101366.44;;;29.47;46.47
21706;BME280;11014;53.076;18.208;2022-07-22T11:31:53;101362.53;;;29.48;46.70
21706;BME280;11014;53.076;18.208;2022-07-22T11:34:23;101365.31;;;29.48;46.60
21706;BME280;11014;53.076;18.208;2022-07-22T11:36:52;101356.19;;;29.48;46.39
21706;BME280;11014;53.076;18.208;2022-07-22T11:39:24;101366.09;;;29.49;46.25
21706;BME280;11014;53.076;18.208;2022-07-22T11:41:55;101359.41;;;29.50;46.39
21706;BME280;11014;53.076;18.208;2022-07-22T11:44:25;101364.53;;;29.60;46.12
21706;BME280;11014;53.076;18.208;2022-07-22T11:46:54;101359.88;;;29.52;46.07
21706;BME280;11014;53.076;18.208;2022-07-22T11:49:28;101360.91;;;29.47;46.24
21706;BME280;11014;53.076;18.208;2022-07-22T11:51:57;101362.06;;;29.46;46.25
21706;BME280;11014;53.076;18.208;2022-07-22T11:54:26;101361.25;;;29.46;46.26
21706;BME280;11014;53.076;18.208;2022-07-22T11:56:54;101361.72;;;29.48;46.22
21706;BME280;11014;53.076;18.208;2022-07-22T11:59:25;101357.78;;;29.49;46.00
21706;BME280;11014;53.076;18.208;2022-07-22T12:01:53;101352.25;;;29.49;45.81
21706;BME280;11014;53.076;18.208;2022-07-22T12:04:23;101358.16;;;29.47;45.81
21706;BME280;11014;53.076;18.208;2022-07-22T12:06:53;101360.56;;;29.49;45.59
21706;BME280;11014;53.076;18.208;2022-07-22T12:09:28;101356.19;;;29.48;45.73
21706;BME280;11014;53.076;18.208;2022-07-22T12:11:58;101352.25;;;29.49;45.74
21706;BME280;11014;53.076;18.208;2022-07-22T12:14:29;101350.66;;;29.48;45.55
21706;BME280;11014;53.076;18.208;2022-07-22T12:17:03;101352.25;;;29.49;45.42
21706;BME280;11014;53.076;18.208;2022-07-22T12:19:34;101345.13;;;29.48;45.67
21706;BME280;11014;53.076;18.208;2022-07-22T12:22:09;101351.13;;;29.50;45.45
21706;BME280;11014;53.076;18.208;2022-07-22T12:24:41;101346.72;;;29.49;45.71
21706;BME280;11014;53.076;18.208;2022-07-22T12:27:15;101336.47;;;29.49;45.66
21706;BME280;11014;53.076;18.208;2022-07-22T12:29:48;101338.38;;;29.36;45.84
21706;BME280;11014;53.076;18.208;2022-07-22T12:32:18;101341.88;;;29.46;45.57
21706;BME280;11014;53.076;18.208;2022-07-22T12:35:02;101336.47;;;29.49;45.26
21706;BME280;11014;53.076;18.208;2022-07-22T12:37:43;101342.13;;;29.53;45.25
21706;BME280;11014;53.076;18.208;2022-07-22T12:43:00;101341.38;;;29.31;45.79
21706;BME280;11014;53.076;18.208;2022-07-22T12:45:30;101338.91;;;29.30;45.68
21706;BME280;11014;53.076;18.208;2022-07-22T12:48:08;101330.16;;;29.28;45.93
21706;BME280;11014;53.076;18.208;2022-07-22T12:50:41;101336.50;;;29.28;45.80
21706;BME280;11014;53.076;18.208;2022-07-22T12:53:12;101350.34;;;29.28;45.44
21706;BME280;11014;53.076;18.208;2022-07-22T12:56:11;101342.03;;;29.28;45.83
21706;BME280;11014;53.076;18.208;2022-07-22T12:58:40;101345.13;;;29.27;45.52
21706;BME280;11014;53.076;18.208;2022-07-22T13:01:09;101344.31;;;29.26;45.92
21706;BME280;11014;53.076;18.208;2022-07-22T13:03:38;101351.47;;;29.27;45.82
21706;BME280;11014;53.076;18.208;2022-07-22T13:06:06;101345.94;;;29.27;45.69
21706;BME280;11014;53.076;18.208;2022-07-22T13:08:40;101345.13;;;29.27;45.66
21706;BME280;11014;53.076;18.208;2022-07-22T13:11:13;101351.47;;;29.27;45.42
21706;BME280;11014;53.076;18.208;2022-07-22T13:13:42;101369.72;;;29.28;45.42
21706;BME280;11014;53.076;18.208;2022-07-22T13:16:11;101355.91;;;29.41;45.09
21706;BME280;11014;53.076;18.208;2022-07-22T13:18:39;101366.09;;;29.49;45.18
21706;BME280;11014;53.076;18.208;2022-07-22T13:21:08;101368.19;;;29.52;45.20
21706;BME280;11014;53.076;18.208;2022-07-22T13:23:39;101360.34;;;29.54;45.27
21706;BME280;11014;53.076;18.208;2022-07-22T13:26:07;101346.19;;;29.55;45.05